sensor_id;sensor_type;location;lat;lon;timestamp;pressure;altitude;pressure_sealevel;temperature;humidity
12624;BME280;6377;42.836;23.998;2023-05-01T00:01:27;95628.84;;;10.46;100.00
12624;BME280;6377;42.836;23.998;2023-05-01T00:03:54;95656.97;;;10.62;100.00
12624;BME280;6377;42.836;23.998;2023-05-01T00:06:22;95651.38;;;10.57;100.00
12624;BME280;6377;42.836;23.998;2023-05-01T00:08:49;95650.94;;;10.53;100.00
12624;BME280;6377;42.836;23.998;2023-05-01T00:11:16;95665.97;;;10.53;100.00
12624;BME280;6377;42.836;23.998;2023-05-01T00:13:43;95663.59;;;10.58;100.00
12624;BME280;6377;42.836;23.998;2023-05-01T00:16:12;95657.13;;;10.60;100.00
12624;BME280;6377;42.836;23.998;2023-05-01T00:18:41;95627.28;;;10.15;100.00
12624;BME280;6377;42.836;23.998;2023-05-01T00:21:08;95616.16;;;9.96;100.00
12624;BME280;6377;42.836;23.998;2023-05-01T00:23:36;95610.03;;;9.96;100.00
12624;BME280;6377;42.836;23.998;2023-05-01T00:26:03;95676.09;;;10.27;100.00
12624;BME280;6377;42.836;23.998;2023-05-01T00:28:30;95646.53;;;9.70;100.00
12624;BME280;6377;42.836;23.998;2023-05-01T00:30:58;95680.00;;;9.77;100.00
12624;BME280;6377;42.836;23.998;2023-05-01T00:33:27;95623.31;;;9.57;100.00
12624;BME280;6377;42.836;23.998;2023-05-01T00:35:54;95676.47;;;9.85;100.00
12624;BME280;6377;42.836;23.998;2023-05-01T00:38:21;95684.19;;;9.94;100.00
12624;BME280;6377;42.836;23.998;2023-05-01T00:40:49;95681.56;;;9.86;100.00
12624;BME280;6377;42.836;23.998;2023-05-01T00:43:16;95685.41;;;9.84;100.00
12624;BME280;6377;42.836;23.998;2023-05-01T00:45:44;95666.97;;;9.76;100.00
12624;BME280;6377;42.836;23.998;2023-05-01T00:48:11;95678.59;;;9.89;100.00
12624;BME280;6377;42.836;23.998;2023-05-01T00:50:40;95688.13;;;9.98;100.00
12624;BME280;6377;42.836;23.998;2023-05-01T00:53:09;95693.19;;;10.08;100.00
12624;BME280;6377;42.836;23.998;2023-05-01T00:55:38;95682.13;;;10.12;100.00
12624;BME280;6377;42.836;23.998;2023-05-01T00:58:08;95672.41;;;10.05;100.00
12624;BME280;6377;42.836;23.998;2023-05-01T01:00:36;95696.28;;;10.20;100.00
12624;BME280;6377;42.836;23.998;2023-05-01T01:03:03;95660.59;;;9.93;100.00
12624;BME280;6377;42.836;23.998;2023-05-01T01:05:34;95697.16;;;10.04;100.00
12624;BME280;6377;42.836;23.998;2023-05-01T01:08:15;95681.06;;;9.60;100.00
12624;BME280;6377;42.836;23.998;2023-05-01T01:10:50;95699.91;;;9.49;100.00
12624;BME280;6377;42.836;23.998;2023-05-01T01:13:23;95694.44;;;9.58;100.00
12624;BME280;6377;42.836;23.998;2023-05-01T01:15:58;95703.69;;;9.63;100.00
12624;BME280;6377;42.836;23.998;2023-05-01T01:18:35;95702.31;;;9.67;100.00
12624;BME280;6377;42.836;23.998;2023-05-01T01:21:07;95702.50;;;9.65;100.00
12624;BME280;6377;42.836;23.998;2023-05-01T01:24:16;95698.56;;;9.61;100.00
12624;BME280;6377;42.836;23.998;2023-05-01T01:27:12;95701.19;;;9.61;100.00
12624;BME280;6377;42.836;23.998;2023-05-01T01:33:21;95679.31;;;9.44;100.00
12624;BME280;6377;42.836;23.998;2023-05-01T01:35:56;95689.25;;;9.34;100.00
12624;BME280;6377;42.836;23.998;2023-05-01T01:38:29;95704.38;;;9.48;100.00
12624;BME280;6377;42.836;23.998;2023-05-01T01:41:06;95704.69;;;9.53;100.00
12624;BME280;6377;42.836;23.998;2023-05-01T01:43:38;95709.63;;;9.56;100.00
12624;BME280;6377;42.836;23.998;2023-05-01T01:46:09;95701.72;;;9.56;100.00
12624;BME280;6377;42.836;23.998;2023-05-01T01:48:40;95698.28;;;9.48;100.00
12624;BME280;6377;42.836;23.998;2023-05-01T01:51:13;95702.75;;;9.47;100.00
12624;BME280;6377;42.836;23.998;2023-05-01T01:53:45;95709.03;;;9.38;100.00
12624;BME280;6377;42.836;23.998;2023-05-01T01:56:16;95681.56;;;9.09;100.00
12624;BME280;6377;42.836;23.998;2023-05-01T01:58:45;95697.22;;;9.18;100.00
12624;BME280;6377;42.836;23.998;2023-05-01T02:01:14;95693.56;;;9.19;100.00
12624;BME280;6377;42.836;23.998;2023-05-01T02:03:44;95692.94;;;9.17;100.00
12624;BME280;6377;42.836;23.998;2023-05-01T02:06:14;95699.34;;;9.23;100.00
12624;BME280;6377;42.836;23.998;2023-05-01T02:08:46;95696.72;;;9.23;100.00
12624;BME280;6377;42.836;23.998;2023-05-01T02:11:16;95698.53;;;9.30;100.00
12624;BME280;6377;42.836;23.998;2023-05-01T02:13:45;95697.66;;;9.38;100.00
12624;BME280;6377;42.836;23.998;2023-05-01T02:16:14;95696.81;;;9.37;100.00
12624;BME280;6377;42.836;23.998;2023-05-01T02:18:44;95669.69;;;9.21;100.00
12624;BME280;6377;42.836;23.998;2023-05-01T02:21:13;95697.63;;;9.46;100.00
12624;BME280;6377;42.836;23.998;2023-05-01T02:23:41;95694.16;;;9.45;100.00
12624;BME280;6377;42.836;23.998;2023-05-01T02:26:12;95688.41;;;9.42;100.00
12624;BME280;6377;42.836;23.998;2023-05-01T02:28:41;95693.84;;;9.40;100.00
12624;BME280;6377;42.836;23.998;2023-05-01T02:31:09;95690.72;;;9.37;100.00
12624;BME280;6377;42.836;23.998;2023-05-01T02:33:36;95691.06;;;9.42;100.00
12624;BME280;6377;42.836;23.998;2023-05-01T02:36:04;95689.22;;;9.42;100.00
12624;BME280;6377;42.836;23.998;2023-05-01T02:38:32;95683.13;;;9.34;100.00
12624;BME280;6377;42.836;23.998;2023-05-01T02:41:01;95692.34;;;9.46;100.00
12624;BME280;6377;42.836;23.998;2023-05-01T02:43:31;95682.59;;;9.46;100.00
12624;BME280;6377;42.836;23.998;2023-05-01T02:46:00;95684.25;;;9.47;100.00
12624;BME280;6377;42.836;23.998;2023-05-01T02:48:29;95695.31;;;9.43;100.00
12624;BME280;6377;42.836;23.998;2023-05-01T02:50:57;95695.66;;;9.48;100.00
12624;BME280;6377;42.836;23.998;2023-05-01T02:53:26;95691.59;;;9.29;100.00
12624;BME280;6377;42.836;23.998;2023-05-01T02:55:55;95693.56;;;9.27;100.00
12624;BME280;6377;42.836;23.998;2023-05-01T02:58:23;95694.22;;;9.29;100.00
12624;BME280;6377;42.836;23.998;2023-05-01T03:00:50;95697.69;;;9.30;100.00
12624;BME280;6377;42.836;23.998;2023-05-01T03:03:17;95702.28;;;9.28;100.00
12624;BME280;6377;42.836;23.998;2023-05-01T03:05:44;95710.53;;;9.25;100.00
12624;BME280;6377;42.836;23.998;2023-05-01T03:08:12;95701.03;;;9.16;100.00
12624;BME280;6377;42.836;23.998;2023-05-01T03:10:39;95717.84;;;9.15;100.00
12624;BME280;6377;42.836;23.998;2023-05-01T03:13:09;95709.44;;;9.11;100.00
12624;BME280;6377;42.836;23.998;2023-05-01T03:15:37;95715.38;;;9.05;100.00
12624;BME280;6377;42.836;23.998;2023-05-01T03:18:04;95717.69;;;9.08;100.00
12624;BME280;6377;42.836;23.998;2023-05-01T03:20:31;95709.78;;;9.08;100.00
12624;BME280;6377;42.836;23.998;2023-05-01T03:22:58;95718.50;;;9.17;100.00
12624;BME280;6377;42.836;23.998;2023-05-01T03:25:25;95710.91;;;9.14;100.00
12624;BME280;6377;42.836;23.998;2023-05-01T03:27:52;95732.50;;;9.25;100.00
12624;BME280;6377;42.836;23.998;2023-05-01T03:30:21;95723.78;;;9.09;100.00
12624;BME280;6377;42.836;23.998;2023-05-01T03:32:48;95744.06;;;9.08;100.00
12624;BME280;6377;42.836;23.998;2023-05-01T03:35:16;95731.06;;;8.98;100.00
12624;BME280;6377;42.836;23.998;2023-05-01T03:37:43;95739.63;;;8.92;100.00
12624;BME280;6377;42.836;23.998;2023-05-01T03:40:11;95740.66;;;8.83;100.00
12624;BME280;6377;42.836;23.998;2023-05-01T03:42:38;95746.59;;;8.77;100.00
12624;BME280;6377;42.836;23.998;2023-05-01T03:45:06;95739.47;;;8.70;100.00
12624;BME280;6377;42.836;23.998;2023-05-01T03:47:35;95742.78;;;8.64;100.00
12624;BME280;6377;42.836;23.998;2023-05-01T03:50:03;95742.63;;;8.65;100.00
12624;BME280;6377;42.836;23.998;2023-05-01T03:52:30;95743.13;;;8.69;100.00
12624;BME280;6377;42.836;23.998;2023-05-01T03:54:58;95739.97;;;8.73;100.00
12624;BME280;6377;42.836;23.998;2023-05-01T03:57:25;95744.41;;;8.81;100.00
12624;BME280;6377;42.836;23.998;2023-05-01T03:59:52;95739.97;;;8.73;100.00
12624;BME280;6377;42.836;23.998;2023-05-01T04:02:20;95748.69;;;8.90;100.00
12624;BME280;6377;42.836;23.998;2023-05-01T04:04:48;95760.91;;;8.91;100.00
12624;BME280;6377;42.836;23.998;2023-05-01T04:07:15;95759.09;;;8.91;100.00
12624;BME280;6377;42.836;23.998;2023-05-01T04:09:43;95757.44;;;8.90;100.00
12624;BME280;6377;42.836;23.998;2023-05-01T04:12:10;95751.34;;;8.98;100.00
12624;BME280;6377;42.836;23.998;2023-05-01T04:14:37;95757.09;;;9.01;100.00
12624;BME280;6377;42.836;23.998;2023-05-01T04:17:04;95738.47;;;8.87;100.00
12624;BME280;6377;42.836;23.998;2023-05-01T04:19:31;95752.00;;;9.00;100.00
12624;BME280;6377;42.836;23.998;2023-05-01T04:22:00;95763.53;;;9.07;100.00
12624;BME280;6377;42.836;23.998;2023-05-01T04:24:28;95770.97;;;8.87;100.00
12624;BME280;6377;42.836;23.998;2023-05-01T04:26:55;95767.00;;;8.91;100.00
12624;BME280;6377;42.836;23.998;2023-05-01T04:29:23;95766.84;;;8.93;100.00
12624;BME280;6377;42.836;23.998;2023-05-01T04:31:50;95767.34;;;8.96;100.00
12624;BME280;6377;42.836;23.998;2023-05-01T04:34:17;95768.97;;;9.06;100.00
12624;BME280;6377;42.836;23.998;2023-05-01T04:36:44;95774.72;;;9.17;100.00
12624;BME280;6377;42.836;23.998;2023-05-01T04:39:13;95768.44;;;9.26;100.00
12624;BME280;6377;42.836;23.998;2023-05-01T04:41:40;95771.75;;;9.36;100.00
12624;BME280;6377;42.836;23.998;2023-05-01T04:44:07;95770.88;;;9.44;100.00
12624;BME280;6377;42.836;23.998;2023-05-01T04:46:34;95771.88;;;9.51;100.00
12624;BME280;6377;42.836;23.998;2023-05-01T04:49:01;95768.88;;;9.54;100.00
12624;BME280;6377;42.836;23.998;2023-05-01T04:51:28;95625.16;;;8.63;100.00
12624;BME280;6377;42.836;23.998;2023-05-01T04:53:55;95767.72;;;9.56;100.00
12624;BME280;6377;42.836;23.998;2023-05-01T04:56:25;95766.06;;;9.55;100.00
12624;BME280;6377;42.836;23.998;2023-05-01T04:58:52;95774.31;;;9.61;100.00
12624;BME280;6377;42.836;23.998;2023-05-01T05:01:19;95768.53;;;9.57;100.00
12624;BME280;6377;42.836;23.998;2023-05-01T05:03:47;95770.66;;;9.70;100.00
12624;BME280;6377;42.836;23.998;2023-05-01T05:06:14;95776.78;;;9.62;100.00
12624;BME280;6377;42.836;23.998;2023-05-01T05:08:41;95770.50;;;9.63;100.00
12624;BME280;6377;42.836;23.998;2023-05-01T05:11:08;95781.38;;;9.68;100.00
12624;BME280;6377;42.836;23.998;2023-05-01T05:13:37;95780.38;;;9.77;100.00
12624;BME280;6377;42.836;23.998;2023-05-01T05:16:04;95787.97;;;9.80;100.00
12624;BME280;6377;42.836;23.998;2023-05-01T05:18:32;95779.53;;;9.77;100.00
12624;BME280;6377;42.836;23.998;2023-05-01T05:21:02;95788.16;;;9.71;100.00
12624;BME280;6377;42.836;23.998;2023-05-01T05:23:29;95759.69;;;9.42;100.00
12624;BME280;6377;42.836;23.998;2023-05-01T05:25:57;95794.75;;;9.67;100.00
12624;BME280;6377;42.836;23.998;2023-05-01T05:28:26;95801.69;;;9.68;100.00
12624;BME280;6377;42.836;23.998;2023-05-01T05:30:54;95800.53;;;9.70;100.00
12624;BME280;6377;42.836;23.998;2023-05-01T05:33:22;95796.38;;;9.76;100.00
12624;BME280;6377;42.836;23.998;2023-05-01T05:35:50;95810.03;;;9.87;100.00
12624;BME280;6377;42.836;23.998;2023-05-01T05:38:17;95803.91;;;9.95;100.00
12624;BME280;6377;42.836;23.998;2023-05-01T05:40:44;95817.25;;;10.09;100.00
12624;BME280;6377;42.836;23.998;2023-05-01T05:43:12;95807.78;;;10.23;100.00
12624;BME280;6377;42.836;23.998;2023-05-01T05:45:39;95813.97;;;10.38;100.00
12624;BME280;6377;42.836;23.998;2023-05-01T05:48:07;95817.34;;;10.55;100.00
12624;BME280;6377;42.836;23.998;2023-05-01T05:50:34;95814.19;;;10.59;100.00
12624;BME280;6377;42.836;23.998;2023-05-01T05:53:01;95817.41;;;10.69;100.00
12624;BME280;6377;42.836;23.998;2023-05-01T05:55:29;95814.50;;;10.87;100.00
12624;BME280;6377;42.836;23.998;2023-05-01T05:57:56;95816.72;;;10.98;100.00
12624;BME280;6377;42.836;23.998;2023-05-01T06:00:23;95811.06;;;11.01;100.00
12624;BME280;6377;42.836;23.998;2023-05-01T06:02:50;95816.88;;;11.19;100.00
12624;BME280;6377;42.836;23.998;2023-05-01T06:05:19;95822.75;;;11.30;100.00
12624;BME280;6377;42.836;23.998;2023-05-01T06:07:46;95818.84;;;11.40;100.00
12624;BME280;6377;42.836;23.998;2023-05-01T06:10:13;95816.50;;;11.60;100.00
12624;BME280;6377;42.836;23.998;2023-05-01T06:12:40;95816.47;;;11.83;100.00
12624;BME280;6377;42.836;23.998;2023-05-01T06:15:08;95832.09;;;11.92;100.00
12624;BME280;6377;42.836;23.998;2023-05-01T06:17:35;95821.31;;;12.08;100.00
12624;BME280;6377;42.836;23.998;2023-05-01T06:20:02;95819.09;;;12.26;100.00
12624;BME280;6377;42.836;23.998;2023-05-01T06:22:32;95822.00;;;12.46;100.00
12624;BME280;6377;42.836;23.998;2023-05-01T06:24:59;95826.63;;;12.59;100.00
12624;BME280;6377;42.836;23.998;2023-05-01T06:27:27;95824.19;;;12.78;100.00
12624;BME280;6377;42.836;23.998;2023-05-01T06:29:54;95819.09;;;12.98;100.00
12624;BME280;6377;42.836;23.998;2023-05-01T06:32:21;95826.00;;;13.14;100.00
12624;BME280;6377;42.836;23.998;2023-05-01T06:34:48;95825.63;;;13.38;100.00
12624;BME280;6377;42.836;23.998;2023-05-01T06:37:15;95826.75;;;13.50;100.00
12624;BME280;6377;42.836;23.998;2023-05-01T06:39:44;95826.53;;;13.52;100.00
12624;BME280;6377;42.836;23.998;2023-05-01T06:42:11;95830.13;;;13.65;100.00
12624;BME280;6377;42.836;23.998;2023-05-01T06:44:40;95827.19;;;13.81;100.00
12624;BME280;6377;42.836;23.998;2023-05-01T06:47:08;95832.72;;;13.86;100.00
12624;BME280;6377;42.836;23.998;2023-05-01T06:49:35;95828.28;;;13.93;100.00
12624;BME280;6377;42.836;23.998;2023-05-01T06:52:02;95829.88;;;14.22;100.00
12624;BME280;6377;42.836;23.998;2023-05-01T06:54:29;95843.78;;;14.24;100.00
12624;BME280;6377;42.836;23.998;2023-05-01T06:56:58;95827.81;;;14.18;100.00
12624;BME280;6377;42.836;23.998;2023-05-01T06:59:25;95836.81;;;14.57;100.00
12624;BME280;6377;42.836;23.998;2023-05-01T07:01:53;95835.25;;;14.70;100.00
12624;BME280;6377;42.836;23.998;2023-05-01T07:04:20;95841.88;;;15.00;100.00
12624;BME280;6377;42.836;23.998;2023-05-01T07:06:48;95840.69;;;15.22;100.00
12624;BME280;6377;42.836;23.998;2023-05-01T07:09:15;95841.94;;;15.46;100.00
12624;BME280;6377;42.836;23.998;2023-05-01T07:11:42;95848.53;;;15.63;100.00
12624;BME280;6377;42.836;23.998;2023-05-01T07:14:11;95845.44;;;15.86;100.00
12624;BME280;6377;42.836;23.998;2023-05-01T07:16:38;95848.53;;;15.96;100.00
12624;BME280;6377;42.836;23.998;2023-05-01T07:19:05;95852.00;;;16.03;100.00
12624;BME280;6377;42.836;23.998;2023-05-01T07:21:32;95853.63;;;16.10;100.00
12624;BME280;6377;42.836;23.998;2023-05-01T07:23:59;95858.38;;;16.08;100.00
12624;BME280;6377;42.836;23.998;2023-05-01T07:26:26;95850.56;;;16.13;100.00
12624;BME280;6377;42.836;23.998;2023-05-01T07:28:53;95857.09;;;16.24;100.00
12624;BME280;6377;42.836;23.998;2023-05-01T07:31:22;95857.25;;;16.49;100.00
12624;BME280;6377;42.836;23.998;2023-05-01T07:33:49;95844.28;;;16.59;100.00
12624;BME280;6377;42.836;23.998;2023-05-01T07:36:17;95810.00;;;16.49;100.00
12624;BME280;6377;42.836;23.998;2023-05-01T07:38:47;95795.19;;;16.66;100.00
12624;BME280;6377;42.836;23.998;2023-05-01T07:41:14;95851.81;;;17.19;100.00
12624;BME280;6377;42.836;23.998;2023-05-01T07:43:41;95851.31;;;17.29;100.00
12624;BME280;6377;42.836;23.998;2023-05-01T07:46:09;95851.72;;;17.32;100.00
12624;BME280;6377;42.836;23.998;2023-05-01T07:48:39;95857.44;;;17.43;100.00
12624;BME280;6377;42.836;23.998;2023-05-01T07:51:06;95857.97;;;17.58;100.00
12624;BME280;6377;42.836;23.998;2023-05-01T07:53:33;95858.19;;;17.50;100.00
12624;BME280;6377;42.836;23.998;2023-05-01T07:56:04;95855.75;;;17.48;100.00
12624;BME280;6377;42.836;23.998;2023-05-01T07:58:33;95856.34;;;17.50;100.00
12624;BME280;6377;42.836;23.998;2023-05-01T08:01:00;95856.28;;;17.63;99.78
12624;BME280;6377;42.836;23.998;2023-05-01T08:03:28;95855.13;;;17.77;100.00
12624;BME280;6377;42.836;23.998;2023-05-01T08:05:57;95861.81;;;17.93;91.10
12624;BME280;6377;42.836;23.998;2023-05-01T08:08:24;95856.59;;;17.98;90.52
12624;BME280;6377;42.836;23.998;2023-05-01T08:10:51;95842.03;;;17.94;88.27
12624;BME280;6377;42.836;23.998;2023-05-01T08:13:19;95849.25;;;18.12;89.77
12624;BME280;6377;42.836;23.998;2023-05-01T08:15:46;95859.75;;;18.13;88.31
12624;BME280;6377;42.836;23.998;2023-05-01T08:18:13;95855.25;;;18.14;85.71
12624;BME280;6377;42.836;23.998;2023-05-01T08:20:45;95839.53;;;18.17;89.48
12624;BME280;6377;42.836;23.998;2023-05-01T08:23:15;95860.25;;;18.28;84.32
12624;BME280;6377;42.836;23.998;2023-05-01T08:25:42;95848.47;;;18.29;84.66
12624;BME280;6377;42.836;23.998;2023-05-01T08:28:12;95813.06;;;18.09;81.55
12624;BME280;6377;42.836;23.998;2023-05-01T08:30:39;95863.84;;;18.59;81.36
12624;BME280;6377;42.836;23.998;2023-05-01T08:33:06;95856.03;;;18.75;83.36
12624;BME280;6377;42.836;23.998;2023-05-01T08:35:33;95857.06;;;18.74;77.01
12624;BME280;6377;42.836;23.998;2023-05-01T08:38:00;95854.91;;;18.83;80.19
12624;BME280;6377;42.836;23.998;2023-05-01T08:40:31;95850.50;;;18.88;75.99
12624;BME280;6377;42.836;23.998;2023-05-01T08:43:00;95858.91;;;18.92;76.46
12624;BME280;6377;42.836;23.998;2023-05-01T08:45:28;95858.06;;;19.10;77.70
12624;BME280;6377;42.836;23.998;2023-05-01T08:48:03;95852.47;;;19.11;76.05
12624;BME280;6377;42.836;23.998;2023-05-01T08:50:33;95853.63;;;19.33;77.50
12624;BME280;6377;42.836;23.998;2023-05-01T08:53:01;95851.41;;;19.30;73.79
12624;BME280;6377;42.836;23.998;2023-05-01T08:55:32;95850.25;;;19.08;75.40
12624;BME280;6377;42.836;23.998;2023-05-01T08:58:00;95818.19;;;19.01;78.59
12624;BME280;6377;42.836;23.998;2023-05-01T09:00:29;95846.56;;;19.39;78.92
12624;BME280;6377;42.836;23.998;2023-05-01T09:03:00;95840.66;;;19.60;74.53
12624;BME280;6377;42.836;23.998;2023-05-01T09:05:31;95840.47;;;19.85;73.74
12624;BME280;6377;42.836;23.998;2023-05-01T09:08:00;95845.28;;;19.41;69.23
12624;BME280;6377;42.836;23.998;2023-05-01T09:10:30;95834.16;;;19.08;68.53
12624;BME280;6377;42.836;23.998;2023-05-01T09:13:00;95837.66;;;19.38;75.75
12624;BME280;6377;42.836;23.998;2023-05-01T09:15:28;95842.75;;;19.58;68.22
12624;BME280;6377;42.836;23.998;2023-05-01T09:17:56;95839.06;;;19.82;71.05
12624;BME280;6377;42.836;23.998;2023-05-01T09:20:25;95830.09;;;20.00;67.78
12624;BME280;6377;42.836;23.998;2023-05-01T09:22:54;95848.31;;;20.56;69.48
12624;BME280;6377;42.836;23.998;2023-05-01T09:25:22;95842.34;;;20.65;60.52
12624;BME280;6377;42.836;23.998;2023-05-01T09:27:51;95841.06;;;20.56;63.78
12624;BME280;6377;42.836;23.998;2023-05-01T09:30:32;95839.00;;;20.35;60.83
12624;BME280;6377;42.836;23.998;2023-05-01T09:33:06;95838.63;;;20.43;59.89
12624;BME280;6377;42.836;23.998;2023-05-01T09:35:50;95835.22;;;20.59;62.80
12624;BME280;6377;42.836;23.998;2023-05-01T09:38:19;95835.16;;;20.83;61.10
12624;BME280;6377;42.836;23.998;2023-05-01T09:40:46;95837.75;;;20.78;58.50
12624;BME280;6377;42.836;23.998;2023-05-01T09:43:23;95840.28;;;20.84;59.57
12624;BME280;6377;42.836;23.998;2023-05-01T09:46:01;95846.34;;;20.51;59.51
12624;BME280;6377;42.836;23.998;2023-05-01T09:48:30;95826.03;;;20.32;62.18
12624;BME280;6377;42.836;23.998;2023-05-01T09:50:57;95841.78;;;20.40;58.31
12624;BME280;6377;42.836;23.998;2023-05-01T09:53:37;95817.63;;;20.29;59.74
12624;BME280;6377;42.836;23.998;2023-05-01T09:56:04;95834.75;;;20.62;59.93
12624;BME280;6377;42.836;23.998;2023-05-01T09:58:33;95841.16;;;20.73;54.72
12624;BME280;6377;42.836;23.998;2023-05-01T10:01:00;95833.19;;;20.90;54.74
12624;BME280;6377;42.836;23.998;2023-05-01T10:03:29;95832.28;;;20.61;55.12
12624;BME280;6377;42.836;23.998;2023-05-01T10:05:57;95833.41;;;20.25;56.58
12624;BME280;6377;42.836;23.998;2023-05-01T10:08:26;95832.34;;;20.26;58.55
12624;BME280;6377;42.836;23.998;2023-05-01T10:11:10;95832.78;;;20.11;59.69
12624;BME280;6377;42.836;23.998;2023-05-01T10:13:38;95817.47;;;19.77;61.28
12624;BME280;6377;42.836;23.998;2023-05-01T10:16:06;95823.69;;;20.12;60.13
12624;BME280;6377;42.836;23.998;2023-05-01T10:18:35;95805.56;;;20.54;57.49
12624;BME280;6377;42.836;23.998;2023-05-01T10:21:03;95820.31;;;20.92;55.36
12624;BME280;6377;42.836;23.998;2023-05-01T10:23:31;95821.53;;;21.12;54.71
12624;BME280;6377;42.836;23.998;2023-05-01T10:26:00;95815.69;;;21.60;53.18
12624;BME280;6377;42.836;23.998;2023-05-01T10:28:29;95808.44;;;22.27;50.63
12624;BME280;6377;42.836;23.998;2023-05-01T10:30:58;95807.31;;;22.07;51.54
12624;BME280;6377;42.836;23.998;2023-05-01T10:33:26;95811.72;;;21.96;49.51
12624;BME280;6377;42.836;23.998;2023-05-01T10:35:56;95816.53;;;21.94;51.01
12624;BME280;6377;42.836;23.998;2023-05-01T10:38:27;95809.47;;;22.26;49.31
12624;BME280;6377;42.836;23.998;2023-05-01T10:40:59;95814.09;;;22.48;49.29
12624;BME280;6377;42.836;23.998;2023-05-01T10:43:28;95809.66;;;22.58;49.79
12624;BME280;6377;42.836;23.998;2023-05-01T10:48:55;95815.38;;;22.23;51.17
12624;BME280;6377;42.836;23.998;2023-05-01T10:51:23;95815.28;;;21.68;50.61
12624;BME280;6377;42.836;23.998;2023-05-01T10:54:25;95817.94;;;21.35;52.47
12624;BME280;6377;42.836;23.998;2023-05-01T10:56:55;95820.94;;;20.71;54.80
12624;BME280;6377;42.836;23.998;2023-05-01T10:59:23;95784.06;;;20.20;56.25
12624;BME280;6377;42.836;23.998;2023-05-01T11:01:51;95812.69;;;20.14;54.05
12624;BME280;6377;42.836;23.998;2023-05-01T11:04:48;95834.06;;;19.97;55.13
12624;BME280;6377;42.836;23.998;2023-05-01T11:07:20;95832.97;;;19.52;52.47
12624;BME280;6377;42.836;23.998;2023-05-01T11:09:48;95827.91;;;18.66;54.99
12624;BME280;6377;42.836;23.998;2023-05-01T11:12:47;95847.06;;;18.27;57.15
12624;BME280;6377;42.836;23.998;2023-05-01T11:15:26;95857.44;;;17.74;59.67
12624;BME280;6377;42.836;23.998;2023-05-01T11:17:54;95852.56;;;17.33;64.81
12624;BME280;6377;42.836;23.998;2023-05-01T11:20:48;95851.00;;;17.19;67.88
12624;BME280;6377;42.836;23.998;2023-05-01T11:23:19;95848.22;;;17.01;75.39
12624;BME280;6377;42.836;23.998;2023-05-01T11:25:49;95863.06;;;17.28;100.00
12624;BME280;6377;42.836;23.998;2023-05-01T11:28:28;95859.69;;;17.08;100.00
12624;BME280;6377;42.836;23.998;2023-05-01T11:30:56;95838.88;;;16.78;100.00
12624;BME280;6377;42.836;23.998;2023-05-01T11:33:24;95832.16;;;16.63;100.00
12624;BME280;6377;42.836;23.998;2023-05-01T11:36:00;95869.88;;;16.86;100.00
12624;BME280;6377;42.836;23.998;2023-05-01T11:38:27;95877.78;;;16.61;100.00
12624;BME280;6377;42.836;23.998;2023-05-01T11:40:58;95883.19;;;16.22;100.00
12624;BME280;6377;42.836;23.998;2023-05-01T11:43:26;95887.31;;;16.05;100.00
12624;BME280;6377;42.836;23.998;2023-05-01T11:45:53;95885.88;;;15.83;100.00
12624;BME280;6377;42.836;23.998;2023-05-01T11:48:29;95903.75;;;15.82;100.00
12624;BME280;6377;42.836;23.998;2023-05-01T11:50:57;95910.88;;;15.62;100.00
12624;BME280;6377;42.836;23.998;2023-05-01T11:53:25;95910.50;;;15.58;100.00
12624;BME280;6377;42.836;23.998;2023-05-01T11:55:53;95903.72;;;15.49;100.00
12624;BME280;6377;42.836;23.998;2023-05-01T11:58:30;95903.06;;;15.41;100.00
12624;BME280;6377;42.836;23.998;2023-05-01T12:00:58;95902.88;;;15.49;100.00
12624;BME280;6377;42.836;23.998;2023-05-01T12:03:25;95899.19;;;15.63;100.00
12624;BME280;6377;42.836;23.998;2023-05-01T12:05:54;95904.97;;;15.73;100.00
12624;BME280;6377;42.836;23.998;2023-05-01T12:08:21;95901.03;;;15.49;100.00
12624;BME280;6377;42.836;23.998;2023-05-01T12:10:53;95905.03;;;15.19;100.00
12624;BME280;6377;42.836;23.998;2023-05-01T12:13:21;95910.72;;;14.96;100.00
12624;BME280;6377;42.836;23.998;2023-05-01T12:15:51;95893.94;;;14.55;100.00
12624;BME280;6377;42.836;23.998;2023-05-01T12:18:19;95904.63;;;14.62;100.00
12624;BME280;6377;42.836;23.998;2023-05-01T12:20:48;95901.88;;;14.48;100.00
12624;BME280;6377;42.836;23.998;2023-05-01T12:23:18;95904.91;;;14.39;100.00
12624;BME280;6377;42.836;23.998;2023-05-01T12:25:46;95903.53;;;14.22;100.00
12624;BME280;6377;42.836;23.998;2023-05-01T12:28:15;95925.28;;;14.53;100.00
12624;BME280;6377;42.836;23.998;2023-05-01T12:30:44;95877.97;;;14.21;100.00
12624;BME280;6377;42.836;23.998;2023-05-01T12:33:13;95931.50;;;14.39;100.00
12624;BME280;6377;42.836;23.998;2023-05-01T12:35:42;95912.56;;;14.21;100.00
12624;BME280;6377;42.836;23.998;2023-05-01T12:38:11;95904.56;;;14.21;100.00
12624;BME280;6377;42.836;23.998;2023-05-01T12:40:39;95923.81;;;14.23;100.00
12624;BME280;6377;42.836;23.998;2023-05-01T12:43:07;95918.81;;;14.34;100.00
12624;BME280;6377;42.836;23.998;2023-05-01T12:45:41;95915.59;;;14.45;100.00
12624;BME280;6377;42.836;23.998;2023-05-01T12:48:11;95914.22;;;14.28;100.00
12624;BME280;6377;42.836;23.998;2023-05-01T12:50:38;95914.78;;;14.24;100.00
12624;BME280;6377;42.836;23.998;2023-05-01T12:53:06;95902.25;;;14.11;100.00
12624;BME280;6377;42.836;23.998;2023-05-01T12:55:44;95883.25;;;13.86;100.00
12624;BME280;6377;42.836;23.998;2023-05-01T12:58:12;95911.06;;;14.12;100.00
12624;BME280;6377;42.836;23.998;2023-05-01T13:00:43;95904.38;;;14.22;100.00
12624;BME280;6377;42.836;23.998;2023-05-01T13:03:11;95911.66;;;14.35;100.00
12624;BME280;6377;42.836;23.998;2023-05-01T13:05:52;95901.53;;;14.30;100.00
12624;BME280;6377;42.836;23.998;2023-05-01T13:08:28;95914.19;;;14.56;100.00
12624;BME280;6377;42.836;23.998;2023-05-01T13:10:58;95919.81;;;14.74;100.00
12624;BME280;6377;42.836;23.998;2023-05-01T13:13:30;95924.22;;;14.95;100.00
12624;BME280;6377;42.836;23.998;2023-05-01T13:16:06;95916.59;;;14.79;100.00